sensor_id;sensor_type;location;lat;lon;timestamp;pressure;altitude;pressure_sealevel;temperature;humidity
67457;BME280;54319;52.038;4.640;2023-02-10T00:00:56;103732.47;;;0.87;96.09
67457;BME280;54319;52.038;4.640;2023-02-10T00:03:23;103755.25;;;0.97;96.06
67457;BME280;54319;52.038;4.640;2023-02-10T00:05:50;103733.31;;;0.88;96.11
67457;BME280;54319;52.038;4.640;2023-02-10T00:08:18;103748.59;;;1.05;96.55
67457;BME280;54319;52.038;4.640;2023-02-10T00:10:46;103743.06;;;1.08;96.08
67457;BME280;54319;52.038;4.640;2023-02-10T00:13:13;103745.47;;;1.14;96.17
67457;BME280;54319;52.038;4.640;2023-02-10T00:15:40;103719.19;;;1.01;96.11
67457;BME280;54319;52.038;4.640;2023-02-10T00:18:07;103695.84;;;0.84;96.18
67457;BME280;54319;52.038;4.640;2023-02-10T00:20:34;103738.97;;;1.18;95.78
67457;BME280;54319;52.038;4.640;2023-02-10T00:23:01;103742.63;;;1.17;95.85
67457;BME280;54319;52.038;4.640;2023-02-10T00:25:27;103740.94;;;1.14;95.75
67457;BME280;54319;52.038;4.640;2023-02-10T00:27:56;103736.28;;;1.18;95.76
67457;BME280;54319;52.038;4.640;2023-02-10T00:30:22;103737.09;;;1.20;95.87
67457;BME280;54319;52.038;4.640;2023-02-10T00:32:50;103730.97;;;1.17;95.81
67457;BME280;54319;52.038;4.640;2023-02-10T00:35:17;103708.59;;;0.98;95.64
67457;BME280;54319;52.038;4.640;2023-02-10T00:37:44;103724.25;;;1.08;95.68
67457;BME280;54319;52.038;4.640;2023-02-10T00:40:10;103707.16;;;0.91;95.57
67457;BME280;54319;52.038;4.640;2023-02-10T00:42:38;103723.19;;;0.93;95.38
67457;BME280;54319;52.038;4.640;2023-02-10T00:45:06;103711.56;;;0.75;95.16
67457;BME280;54319;52.038;4.640;2023-02-10T00:47:34;103703.31;;;0.60;95.30
67457;BME280;54319;52.038;4.640;2023-02-10T00:50:00;103728.63;;;0.74;95.18
67457;BME280;54319;52.038;4.640;2023-02-10T00:52:28;103736.84;;;0.70;95.24
67457;BME280;54319;52.038;4.640;2023-02-10T00:54:56;103723.72;;;0.64;95.23
67457;BME280;54319;52.038;4.640;2023-02-10T00:57:23;103739.53;;;0.70;95.28
67457;BME280;54319;52.038;4.640;2023-02-10T00:59:51;103739.78;;;0.66;95.37
67457;BME280;54319;52.038;4.640;2023-02-10T01:02:20;103737.88;;;0.68;95.46
67457;BME280;54319;52.038;4.640;2023-02-10T01:04:47;103742.31;;;0.69;95.55
67457;BME280;54319;52.038;4.640;2023-02-10T01:07:13;103739.78;;;0.66;95.52
67457;BME280;54319;52.038;4.640;2023-02-10T01:09:41;103728.09;;;0.48;95.67
67457;BME280;54319;52.038;4.640;2023-02-10T01:12:08;103728.47;;;0.40;95.55
67457;BME280;54319;52.038;4.640;2023-02-10T01:14:35;103741.84;;;0.41;95.33
67457;BME280;54319;52.038;4.640;2023-02-10T01:17:01;103744.94;;;0.32;95.26
67457;BME280;54319;52.038;4.640;2023-02-10T01:19:30;103747.91;;;0.26;95.29
67457;BME280;54319;52.038;4.640;2023-02-10T01:21:57;103754.53;;;0.19;94.93
67457;BME280;54319;52.038;4.640;2023-02-10T01:24:24;103751.19;;;0.13;95.18
67457;BME280;54319;52.038;4.640;2023-02-10T01:26:50;103739.00;;;0.06;95.18
67457;BME280;54319;52.038;4.640;2023-02-10T01:29:18;103759.44;;;0.09;95.21
67457;BME280;54319;52.038;4.640;2023-02-10T01:31:44;103741.81;;;0.03;95.50
67457;BME280;54319;52.038;4.640;2023-02-10T01:34:11;103751.31;;;0.10;95.54
67457;BME280;54319;52.038;4.640;2023-02-10T01:36:39;103752.03;;;0.14;95.50
67457;BME280;54319;52.038;4.640;2023-02-10T01:39:06;103744.38;;;0.06;95.67
67457;BME280;54319;52.038;4.640;2023-02-10T01:41:35;103707.28;;;-0.05;96.11
67457;BME280;54319;52.038;4.640;2023-02-10T01:45:00;103741.69;;;0.25;96.10
67457;BME280;54319;52.038;4.640;2023-02-10T01:46:54;103734.84;;;0.18;96.13
67457;BME280;54319;52.038;4.640;2023-02-10T01:49:24;103736.66;;;0.18;95.78
67457;BME280;54319;52.038;4.640;2023-02-10T01:51:56;103762.63;;;0.36;96.18
67457;BME280;54319;52.038;4.640;2023-02-10T01:54:33;103767.16;;;0.55;96.60
67457;BME280;54319;52.038;4.640;2023-02-10T01:57:03;103745.16;;;0.47;96.92
67457;BME280;54319;52.038;4.640;2023-02-10T01:59:32;103774.69;;;0.66;96.87
67457;BME280;54319;52.038;4.640;2023-02-10T02:02:01;103767.03;;;0.76;96.92
67457;BME280;54319;52.038;4.640;2023-02-10T02:04:33;103766.03;;;0.78;96.95
67457;BME280;54319;52.038;4.640;2023-02-10T02:07:01;103766.19;;;0.75;96.78
67457;BME280;54319;52.038;4.640;2023-02-10T02:09:28;103720.03;;;0.48;96.64
67457;BME280;54319;52.038;4.640;2023-02-10T02:12:00;103755.81;;;0.67;96.63
67457;BME280;54319;52.038;4.640;2023-02-10T02:14:35;103726.50;;;0.43;96.52
67457;BME280;54319;52.038;4.640;2023-02-10T02:17:11;103757.13;;;0.59;96.24
67457;BME280;54319;52.038;4.640;2023-02-10T02:23:43;103752.78;;;0.56;96.38
67457;BME280;54319;52.038;4.640;2023-02-10T02:26:37;103722.81;;;0.27;96.28
67457;BME280;54319;52.038;4.640;2023-02-10T02:29:25;103761.34;;;0.45;96.25
67457;BME280;54319;52.038;4.640;2023-02-10T02:32:00;103751.09;;;0.15;96.05
67457;BME280;54319;52.038;4.640;2023-02-10T02:34:33;103737.31;;;0.23;96.12
67457;BME280;54319;52.038;4.640;2023-02-10T02:37:03;103748.56;;;0.31;96.17
67457;BME280;54319;52.038;4.640;2023-02-10T02:39:32;103769.84;;;0.36;96.11
67457;BME280;54319;52.038;4.640;2023-02-10T02:42:51;103770.03;;;0.31;96.25
67457;BME280;54319;52.038;4.640;2023-02-10T02:45:27;103762.91;;;0.11;96.26
67457;BME280;54319;52.038;4.640;2023-02-10T02:48:18;103780.84;;;0.10;96.20
67457;BME280;54319;52.038;4.640;2023-02-10T02:50:53;103785.19;;;0.13;96.23
67457;BME280;54319;52.038;4.640;2023-02-10T02:53:28;103789.56;;;0.16;96.21
67457;BME280;54319;52.038;4.640;2023-02-10T02:56:03;103737.75;;;-0.06;96.25
67457;BME280;54319;52.038;4.640;2023-02-10T02:58:40;103782.91;;;0.24;96.23
67457;BME280;54319;52.038;4.640;2023-02-10T03:01:11;103777.59;;;0.23;96.48
67457;BME280;54319;52.038;4.640;2023-02-10T03:03:41;103565.19;;;-1.05;96.17
67457;BME280;54319;52.038;4.640;2023-02-10T03:06:08;103787.41;;;0.24;96.27
67457;BME280;54319;52.038;4.640;2023-02-10T03:08:38;103778.53;;;0.22;96.42
67457;BME280;54319;52.038;4.640;2023-02-10T03:11:06;103774.41;;;0.14;96.47
67457;BME280;54319;52.038;4.640;2023-02-10T03:13:34;103784.00;;;0.20;96.34
67457;BME280;54319;52.038;4.640;2023-02-10T03:16:00;103784.84;;;0.21;96.57
67457;BME280;54319;52.038;4.640;2023-02-10T03:18:28;103783.16;;;0.18;96.38
67457;BME280;54319;52.038;4.640;2023-02-10T03:20:56;103786.59;;;0.22;96.38
67457;BME280;54319;52.038;4.640;2023-02-10T03:23:24;103794.66;;;0.22;96.19
67457;BME280;54319;52.038;4.640;2023-02-10T03:25:50;103805.25;;;0.25;96.61
67457;BME280;54319;52.038;4.640;2023-02-10T03:28:17;103786.88;;;0.16;96.34
67457;BME280;54319;52.038;4.640;2023-02-10T03:30:44;103794.94;;;0.16;96.40
67457;BME280;54319;52.038;4.640;2023-02-10T03:33:17;103781.94;;;0.06;96.21
67457;BME280;54319;52.038;4.640;2023-02-10T03:35:45;103790.00;;;0.06;96.36
67457;BME280;54319;52.038;4.640;2023-02-10T03:38:14;103787.44;;;0.03;96.01
67457;BME280;54319;52.038;4.640;2023-02-10T03:40:41;103758.88;;;-0.19;95.92
67457;BME280;54319;52.038;4.640;2023-02-10T03:43:08;103794.16;;;-0.07;95.92
67457;BME280;54319;52.038;4.640;2023-02-10T03:45:34;103792.34;;;-0.07;95.93
67457;BME280;54319;52.038;4.640;2023-02-10T03:48:02;103804.19;;;-0.11;96.27
67457;BME280;54319;52.038;4.640;2023-02-10T03:50:28;103795.19;;;-0.10;96.31
67457;BME280;54319;52.038;4.640;2023-02-10T03:52:56;103782.75;;;-0.12;96.31
67457;BME280;54319;52.038;4.640;2023-02-10T03:55:25;103780.97;;;-0.12;96.40
67457;BME280;54319;52.038;4.640;2023-02-10T03:57:52;103797.22;;;-0.15;96.30
67457;BME280;54319;52.038;4.640;2023-02-10T04:00:19;103780.50;;;-0.22;96.18
67457;BME280;54319;52.038;4.640;2023-02-10T04:02:47;103791.38;;;-0.25;96.17
67457;BME280;54319;52.038;4.640;2023-02-10T04:05:14;103783.47;;;-0.28;96.01
67457;BME280;54319;52.038;4.640;2023-02-10T04:07:41;103725.13;;;-0.64;96.00
67457;BME280;54319;52.038;4.640;2023-02-10T04:10:08;103683.50;;;-0.94;96.01
67457;BME280;54319;52.038;4.640;2023-02-10T04:12:38;103788.06;;;-0.32;96.10
67457;BME280;54319;52.038;4.640;2023-02-10T04:15:06;103790.56;;;-0.27;96.00
67457;BME280;54319;52.038;4.640;2023-02-10T04:17:34;103792.84;;;-0.18;96.53
67457;BME280;54319;52.038;4.640;2023-02-10T04:20:00;103800.78;;;0.05;97.15
67457;BME280;54319;52.038;4.640;2023-02-10T04:22:28;103788.59;;;-0.03;97.15
67457;BME280;54319;52.038;4.640;2023-02-10T04:24:55;103796.66;;;-0.03;96.93
67457;BME280;54319;52.038;4.640;2023-02-10T04:27:22;103802.19;;;-0.07;96.75
67457;BME280;54319;52.038;4.640;2023-02-10T04:29:51;103800.59;;;-0.11;96.71
67457;BME280;54319;52.038;4.640;2023-02-10T04:32:17;103799.09;;;-0.17;96.43
67457;BME280;54319;52.038;4.640;2023-02-10T04:34:44;103801.03;;;-0.21;96.50
67457;BME280;54319;52.038;4.640;2023-02-10T04:37:11;103796.72;;;-0.25;96.38
67457;BME280;54319;52.038;4.640;2023-02-10T04:39:38;103773.84;;;-0.34;96.37
67457;BME280;54319;52.038;4.640;2023-02-10T04:42:05;103792.16;;;-0.23;96.39
67457;BME280;54319;52.038;4.640;2023-02-10T04:44:32;103772.88;;;-0.31;96.61
67457;BME280;54319;52.038;4.640;2023-02-10T04:47:00;103792.03;;;-0.20;96.71
67457;BME280;54319;52.038;4.640;2023-02-10T04:49:28;103785.06;;;-0.24;96.93
67457;BME280;54319;52.038;4.640;2023-02-10T04:51:54;103769.28;;;-0.32;96.48
67457;BME280;54319;52.038;4.640;2023-02-10T04:54:22;103786.84;;;-0.24;96.44
67457;BME280;54319;52.038;4.640;2023-02-10T04:56:48;103790.47;;;-0.25;96.78
67457;BME280;54319;52.038;4.640;2023-02-10T04:59:15;103721.91;;;-0.73;96.73
67457;BME280;54319;52.038;4.640;2023-02-10T05:01:42;103795.13;;;-0.29;96.60
67457;BME280;54319;52.038;4.640;2023-02-10T05:04:10;103796.13;;;-0.32;96.55
67457;BME280;54319;52.038;4.640;2023-02-10T05:06:37;103789.16;;;-0.36;96.51
67457;BME280;54319;52.038;4.640;2023-02-10T05:09:05;103789.34;;;-0.40;96.59
67457;BME280;54319;52.038;4.640;2023-02-10T05:11:31;103776.06;;;-0.44;96.91
67457;BME280;54319;52.038;4.640;2023-02-10T05:13:59;103782.31;;;-0.43;96.68
67457;BME280;54319;52.038;4.640;2023-02-10T05:16:26;103778.06;;;-0.49;96.51
67457;BME280;54319;52.038;4.640;2023-02-10T05:18:53;103786.94;;;-0.47;96.96
67457;BME280;54319;52.038;4.640;2023-02-10T05:21:21;103779.81;;;-0.48;96.70
67457;BME280;54319;52.038;4.640;2023-02-10T05:23:48;103779.91;;;-0.49;96.78
67457;BME280;54319;52.038;4.640;2023-02-10T05:26:14;103784.38;;;-0.50;96.76
67457;BME280;54319;52.038;4.640;2023-02-10T05:28:41;103762.53;;;-0.61;96.70
67457;BME280;54319;52.038;4.640;2023-02-10T05:31:08;103787.19;;;-0.53;96.76
67457;BME280;54319;52.038;4.640;2023-02-10T05:33:35;103790.81;;;-0.54;96.82
67457;BME280;54319;52.038;4.640;2023-02-10T05:36:02;103792.66;;;-0.54;96.26
67457;BME280;54319;52.038;4.640;2023-02-10T05:38:31;103769.09;;;-0.68;96.67
67457;BME280;54319;52.038;4.640;2023-02-10T05:40:58;103781.03;;;-0.55;96.81
67457;BME280;54319;52.038;4.640;2023-02-10T05:43:26;103772.94;;;-0.53;96.81
67457;BME280;54319;52.038;4.640;2023-02-10T05:45:52;103770.13;;;-0.50;96.93
67457;BME280;54319;52.038;4.640;2023-02-10T05:48:19;103768.81;;;-0.41;96.82
67457;BME280;54319;52.038;4.640;2023-02-10T05:50:49;103765.75;;;-0.32;97.58
67457;BME280;54319;52.038;4.640;2023-02-10T05:53:16;103768.03;;;-0.23;97.58
67457;BME280;54319;52.038;4.640;2023-02-10T05:55:46;103767.59;;;-0.13;97.63
67457;BME280;54319;52.038;4.640;2023-02-10T05:58:13;103771.09;;;-0.11;97.20
67457;BME280;54319;52.038;4.640;2023-02-10T06:00:40;103769.84;;;-0.04;97.77
67457;BME280;54319;52.038;4.640;2023-02-10T06:03:08;103780.53;;;-0.03;97.68
67457;BME280;54319;52.038;4.640;2023-02-10T06:05:34;103795.84;;;-0.05;97.82
67457;BME280;54319;52.038;4.640;2023-02-10T06:08:01;103798.66;;;-0.08;97.48
67457;BME280;54319;52.038;4.640;2023-02-10T06:10:28;103799.81;;;-0.13;97.48
67457;BME280;54319;52.038;4.640;2023-02-10T06:12:57;103803.28;;;-0.11;97.32
67457;BME280;54319;52.038;4.640;2023-02-10T06:15:23;103798.06;;;-0.15;96.85
67457;BME280;54319;52.038;4.640;2023-02-10T06:17:50;103794.72;;;-0.20;97.35
67457;BME280;54319;52.038;4.640;2023-02-10T06:20:17;103795.00;;;-0.26;97.38
67457;BME280;54319;52.038;4.640;2023-02-10T06:22:44;103787.53;;;-0.40;97.02
67457;BME280;54319;52.038;4.640;2023-02-10T06:25:11;103796.53;;;-0.41;97.14
67457;BME280;54319;52.038;4.640;2023-02-10T06:27:38;103799.97;;;-0.37;97.24
67457;BME280;54319;52.038;4.640;2023-02-10T06:30:19;103808.25;;;-0.44;97.16
67457;BME280;54319;52.038;4.640;2023-02-10T06:32:56;103826.22;;;-0.46;97.09
67457;BME280;54319;52.038;4.640;2023-02-10T06:35:23;103824.75;;;-0.53;97.19
67457;BME280;54319;52.038;4.640;2023-02-10T06:37:50;103827.56;;;-0.56;97.03
67457;BME280;54319;52.038;4.640;2023-02-10T06:40:19;103827.75;;;-0.61;97.00
67457;BME280;54319;52.038;4.640;2023-02-10T06:42:47;103832.28;;;-0.63;97.25
67457;BME280;54319;52.038;4.640;2023-02-10T06:45:15;103812.25;;;-0.75;97.08
67457;BME280;54319;52.038;4.640;2023-02-10T06:47:44;103827.03;;;-0.64;97.06
67457;BME280;54319;52.038;4.640;2023-02-10T06:50:10;103834.81;;;-0.58;97.34
67457;BME280;54319;52.038;4.640;2023-02-10T06:52:38;103822.25;;;-0.57;97.36
67457;BME280;54319;52.038;4.640;2023-02-10T06:55:06;103816.84;;;-0.56;97.34
67457;BME280;54319;52.038;4.640;2023-02-10T06:57:35;103805.31;;;-0.58;97.23
67457;BME280;54319;52.038;4.640;2023-02-10T07:00:02;103803.41;;;-0.56;97.45
67457;BME280;54319;52.038;4.640;2023-02-10T07:02:31;103799.81;;;-0.55;97.52
67457;BME280;54319;52.038;4.640;2023-02-10T07:04:57;103799.75;;;-0.53;97.42
67457;BME280;54319;52.038;4.640;2023-02-10T07:07:24;103794.25;;;-0.50;97.67
67457;BME280;54319;52.038;4.640;2023-02-10T07:09:51;103793.31;;;-0.49;97.72
67457;BME280;54319;52.038;4.640;2023-02-10T07:12:20;103806.38;;;-0.41;97.36
67457;BME280;54319;52.038;4.640;2023-02-10T07:14:47;103810.00;;;-0.42;97.43
67457;BME280;54319;52.038;4.640;2023-02-10T07:17:14;103816.91;;;-0.37;97.47
67457;BME280;54319;52.038;4.640;2023-02-10T07:19:42;103818.47;;;-0.31;97.32
67457;BME280;54319;52.038;4.640;2023-02-10T07:22:09;103821.28;;;-0.34;97.11
67457;BME280;54319;52.038;4.640;2023-02-10T07:24:36;103832.97;;;-0.35;97.18
67457;BME280;54319;52.038;4.640;2023-02-10T07:27:03;103834.69;;;-0.34;97.32
67457;BME280;54319;52.038;4.640;2023-02-10T07:29:31;103837.38;;;-0.34;97.36
67457;BME280;54319;52.038;4.640;2023-02-10T07:31:57;103853.41;;;-0.33;97.33
67457;BME280;54319;52.038;4.640;2023-02-10T07:34:26;103857.78;;;-0.30;97.56
67457;BME280;54319;52.038;4.640;2023-02-10T07:36:56;103861.25;;;-0.28;97.53
67457;BME280;54319;52.038;4.640;2023-02-10T07:39:23;103861.13;;;-0.25;97.54
67457;BME280;54319;52.038;4.640;2023-02-10T07:41:50;103852.13;;;-0.24;97.45
67457;BME280;54319;52.038;4.640;2023-02-10T07:44:18;103847.56;;;-0.22;97.58
67457;BME280;54319;52.038;4.640;2023-02-10T07:46:46;103840.38;;;-0.21;97.40
67457;BME280;54319;52.038;4.640;2023-02-10T07:49:13;103856.44;;;-0.20;97.27
67457;BME280;54319;52.038;4.640;2023-02-10T07:51:39;103849.03;;;-0.15;97.16
67457;BME280;54319;52.038;4.640;2023-02-10T07:54:09;103844.34;;;-0.09;97.45
67457;BME280;54319;52.038;4.640;2023-02-10T07:56:36;103854.81;;;-0.03;97.21
67457;BME280;54319;52.038;4.640;2023-02-10T07:59:03;103795.50;;;-0.38;97.17
67457;BME280;54319;52.038;4.640;2023-02-10T08:01:30;103862.63;;;0.03;97.31
67457;BME280;54319;52.038;4.640;2023-02-10T08:03:57;103869.63;;;0.06;96.96
67457;BME280;54319;52.038;4.640;2023-02-10T08:06:25;103879.53;;;0.05;96.68
67457;BME280;54319;52.038;4.640;2023-02-10T08:08:54;103861.53;;;0.07;96.94
67457;BME280;54319;52.038;4.640;2023-02-10T08:11:21;103861.53;;;0.07;96.77
67457;BME280;54319;52.038;4.640;2023-02-10T08:13:49;103863.28;;;0.08;96.23
67457;BME280;54319;52.038;4.640;2023-02-10T08:16:16;103848.59;;;-0.04;96.47
67457;BME280;54319;52.038;4.640;2023-02-10T08:18:43;103860.78;;;0.04;96.66
67457;BME280;54319;52.038;4.640;2023-02-10T08:21:10;103851.19;;;-0.02;96.41
67457;BME280;54319;52.038;4.640;2023-02-10T08:23:37;103870.16;;;0.14;96.62
67457;BME280;54319;52.038;4.640;2023-02-10T08:26:04;103793.66;;;-0.36;96.66
67457;BME280;54319;52.038;4.640;2023-02-10T08:28:34;103822.22;;;-0.15;96.40
67457;BME280;54319;52.038;4.640;2023-02-10T08:31:02;103859.78;;;0.06;96.46
67457;BME280;54319;52.038;4.640;2023-02-10T08:33:30;103852.41;;;0.11;96.52
67457;BME280;54319;52.038;4.640;2023-02-10T08:36:03;103858.00;;;0.26;96.61
67457;BME280;54319;52.038;4.640;2023-02-10T08:38:31;103872.84;;;0.35;96.55
67457;BME280;54319;52.038;4.640;2023-02-10T08:40:58;103846.59;;;0.21;96.31
67457;BME280;54319;52.038;4.640;2023-02-10T08:43:25;103868.28;;;0.56;96.59
67457;BME280;54319;52.038;4.640;2023-02-10T08:45:54;103863.72;;;0.58;96.04
67457;BME280;54319;52.038;4.640;2023-02-10T08:48:22;103837.78;;;0.57;96.17
67457;BME280;54319;52.038;4.640;2023-02-10T08:50:49;103819.50;;;0.46;96.24
67457;BME280;54319;52.038;4.640;2023-02-10T08:53:16;103855.50;;;0.80;96.36
67457;BME280;54319;52.038;4.640;2023-02-10T08:55:43;103858.94;;;0.84;95.95
67457;BME280;54319;52.038;4.640;2023-02-10T08:58:11;103873.22;;;1.04;96.08
67457;BME280;54319;52.038;4.640;2023-02-10T09:00:37;103871.59;;;1.19;95.99
67457;BME280;54319;52.038;4.640;2023-02-10T09:03:06;103860.00;;;1.18;95.41
67457;BME280;54319;52.038;4.640;2023-02-10T09:05:34;103879.31;;;1.44;95.47
67457;BME280;54319;52.038;4.640;2023-02-10T09:08:02;103872.00;;;1.48;95.68
67457;BME280;54319;52.038;4.640;2023-02-10T09:10:30;103873.34;;;1.56;94.99
67457;BME280;54319;52.038;4.640;2023-02-10T09:12:57;103876.19;;;1.71;94.93
67457;BME280;54319;52.038;4.640;2023-02-10T09:15:23;103858.47;;;1.67;94.56
67457;BME280;54319;52.038;4.640;2023-02-10T09:17:50;103867.66;;;1.80;94.33
67457;BME280;54319;52.038;4.640;2023-02-10T09:20:18;103877.31;;;2.02;93.81
67457;BME280;54319;52.038;4.640;2023-02-10T09:22:46;103883.78;;;2.15;93.46
67457;BME280;54319;52.038;4.640;2023-02-10T09:25:13;103885.50;;;2.16;92.81
67457;BME280;54319;52.038;4.640;2023-02-10T09:27:40;103890.28;;;2.29;93.03
67457;BME280;54319;52.038;4.640;2023-02-10T09:30:08;103893.09;;;2.43;92.81
67457;BME280;54319;52.038;4.640;2023-02-10T09:32:35;103888.69;;;2.58;92.60
67457;BME280;54319;52.038;4.640;2023-02-10T09:35:01;103890.63;;;2.72;91.64
67457;BME280;54319;52.038;4.640;2023-02-10T09:37:30;103899.56;;;2.73;90.56
67457;BME280;54319;52.038;4.640;2023-02-10T09:39:57;103887.78;;;2.92;90.62
67457;BME280;54319;52.038;4.640;2023-02-10T09:42:30;103877.66;;;2.95;89.18
67457;BME280;54319;52.038;4.640;2023-02-10T09:45:10;103884.97;;;3.09;88.91
67457;BME280;54319;52.038;4.640;2023-02-10T09:47:45;103884.25;;;3.22;88.71
67457;BME280;54319;52.038;4.640;2023-02-10T09:50:39;103873.03;;;3.29;88.51
67457;BME280;54319;52.038;4.640;2023-02-10T09:53:14;103862.66;;;3.38;87.83
67457;BME280;54319;52.038;4.640;2023-02-10T09:55:46;103889.59;;;3.70;87.70
67457;BME280;54319;52.038;4.640;2023-02-10T09:58:22;103893.31;;;3.83;86.73
67457;BME280;54319;52.038;4.640;2023-02-10T10:00:55;103807.56;;;3.42;85.78
67457;BME280;54319;52.038;4.640;2023-02-10T10:03:27;103883.56;;;3.95;86.01
67457;BME280;54319;52.038;4.640;2023-02-10T10:06:03;103859.44;;;3.92;85.89
67457;BME280;54319;52.038;4.640;2023-02-10T10:08:42;103886.78;;;4.16;85.14
67457;BME280;54319;52.038;4.640;2023-02-10T10:11:22;103882.34;;;4.15;84.61
67457;BME280;54319;52.038;4.640;2023-02-10T10:13:50;103889.34;;;4.19;84.32
67457;BME280;54319;52.038;4.640;2023-02-10T10:16:24;103893.00;;;4.33;84.30
67457;BME280;54319;52.038;4.640;2023-02-10T10:19:02;103883.84;;;4.50;83.97
67457;BME280;54319;52.038;4.640;2023-02-10T10:21:36;103882.09;;;4.49;82.99
67457;BME280;54319;52.038;4.640;2023-02-10T10:24:25;103869.56;;;4.48;83.74
67457;BME280;54319;52.038;4.640;2023-02-10T10:27:03;103864.59;;;4.69;83.16
67457;BME280;54319;52.038;4.640;2023-02-10T10:29:39;103880.31;;;4.91;82.14
67457;BME280;54319;52.038;4.640;2023-02-10T10:32:15;103827.72;;;4.68;81.45
67457;BME280;54319;52.038;4.640;2023-02-10T10:34:49;103866.03;;;5.17;80.73
67457;BME280;54319;52.038;4.640;2023-02-10T10:37:19;103851.03;;;4.98;80.78
67457;BME280;54319;52.038;4.640;2023-02-10T10:39:49;103867.84;;;5.03;79.61
67457;BME280;54319;52.038;4.640;2023-02-10T10:42:22;103877.78;;;5.03;79.91
67457;BME280;54319;52.038;4.640;2023-02-10T10:44:54;103863.75;;;5.11;78.79
67457;BME280;54319;52.038;4.640;2023-02-10T10:47:33;103819.56;;;4.83;79.02
67457;BME280;54319;52.038;4.640;2023-02-10T10:50:01;103846.66;;;5.38;78.17
67457;BME280;54319;52.038;4.640;2023-02-10T10:52:32;103868.44;;;5.49;77.86
67457;BME280;54319;52.038;4.640;2023-02-10T10:55:08;103865.72;;;5.49;77.22
67457;BME280;54319;52.038;4.640;2023-02-10T10:57:39;103866.22;;;5.69;77.20
67457;BME280;54319;52.038;4.640;2023-02-10T11:00:15;103780.41;;;5.16;76.75
67457;BME280;54319;52.038;4.640;2023-02-10T11:02:53;103873.38;;;5.70;77.00
67457;BME280;54319;52.038;4.640;2023-02-10T11:05:21;103836.19;;;5.59;77.52
67457;BME280;54319;52.038;4.640;2023-02-10T11:07:51;103857.25;;;5.81;76.74
67457;BME280;54319;52.038;4.640;2023-02-10T11:10:26;103845.00;;;5.88;76.53
67457;BME280;54319;52.038;4.640;2023-02-10T11:12:58;103869.09;;;6.06;76.80
67457;BME280;54319;52.038;4.640;2023-02-10T11:15:33;103863.69;;;6.19;75.91
67457;BME280;54319;52.038;4.640;2023-02-10T11:18:02;103853.47;;;5.97;75.46
67457;BME280;54319;52.038;4.640;2023-02-10T11:20:35;103854.31;;;5.84;75.20
67457;BME280;54319;52.038;4.640;2023-02-10T11:23:12;103822.66;;;5.59;75.63
67457;BME280;54319;52.038;4.640;2023-02-10T11:25:41;103854.31;;;5.84;76.01
67457;BME280;54319;52.038;4.640;2023-02-10T11:28:17;103844.16;;;5.88;76.02
67457;BME280;54319;52.038;4.640;2023-02-10T11:30:46;103830.16;;;5.81;76.16
67457;BME280;54319;52.038;4.640;2023-02-10T11:33:20;103827.78;;;5.89;76.42
67457;BME280;54319;52.038;4.640;2023-02-10T11:35:48;103813.16;;;5.92;75.99
67457;BME280;54319;52.038;4.640;2023-02-10T11:38:19;103831.72;;;6.11;75.78
67457;BME280;54319;52.038;4.640;2023-02-10T11:40:53;103801.13;;;5.96;75.54
67457;BME280;54319;52.038;4.640;2023-02-10T11:43:28;103834.22;;;6.14;75.90
67457;BME280;54319;52.038;4.640;2023-02-10T11:45:57;103821.94;;;6.21;75.84
67457;BME280;54319;52.038;4.640;2023-02-10T11:48:26;103829.75;;;6.26;74.98
67457;BME280;54319;52.038;4.640;2023-02-10T11:51:01;103841.44;;;6.40;75.19
67457;BME280;54319;52.038;4.640;2023-02-10T11:53:31;103828.53;;;6.43;75.03
67457;BME280;54319;52.038;4.640;2023-02-10T11:56:02;103818.91;;;6.26;75.21
67457;BME280;54319;52.038;4.640;2023-02-10T11:58:46;103815.94;;;6.42;75.17
67457;BME280;54319;52.038;4.640;2023-02-10T12:01:53;103798.91;;;6.40;74.83
67457;BME280;54319;52.038;4.640;2023-02-10T12:04:48;103789.69;;;6.56;73.97
67457;BME280;54319;52.038;4.640;2023-02-10T12:07:30;103811.75;;;6.75;73.76
67457;BME280;54319;52.038;4.640;2023-02-10T12:10:08;103816.53;;;6.72;73.46
67457;BME280;54319;52.038;4.640;2023-02-10T12:12:42;103816.72;;;6.81;73.80
67457;BME280;54319;52.038;4.640;2023-02-10T12:15:17;103804.44;;;6.89;72.66
67457;BME280;54319;52.038;4.640;2023-02-10T12:17:55;103816.09;;;7.02;72.89
67457;BME280;54319;52.038;4.640;2023-02-10T12:20:37;103778.50;;;6.85;72.44
67457;BME280;54319;52.038;4.640;2023-02-10T12:26:09;103816.19;;;7.01;72.15
67457;BME280;54319;52.038;4.640;2023-02-10T12:28:48;103803.22;;;6.93;73.00
67457;BME280;54319;52.038;4.640;2023-02-10T12:31:28;103811.19;;;7.07;72.64
67457;BME280;54319;52.038;4.640;2023-02-10T12:34:11;103811.16;;;7.32;71.70
67457;BME280;54319;52.038;4.640;2023-02-10T12:36:46;103797.44;;;7.58;71.29
67457;BME280;54319;52.038;4.640;2023-02-10T12:39:22;103806.97;;;7.63;69.90
67457;BME280;54319;52.038;4.640;2023-02-10T12:41:58;103803.28;;;7.76;69.76
67457;BME280;54319;52.038;4.640;2023-02-10T12:44:43;103786.97;;;7.64;69.08
67457;BME280;54319;52.038;4.640;2023-02-10T12:47:25;103806.31;;;7.60;69.24
67457;BME280;54319;52.038;4.640;2023-02-10T12:50:02;103800.53;;;7.64;69.98
67457;BME280;54319;52.038;4.640;2023-02-10T12:52:34;103811.28;;;7.66;69.75
67457;BME280;54319;52.038;4.640;2023-02-10T12:55:10;103802.13;;;7.67;69.92
67457;BME280;54319;52.038;4.640;2023-02-10T12:57:43;103791.16;;;7.68;67.24
67457;BME280;54319;52.038;4.640;2023-02-10T13:00:16;103783.50;;;7.74;68.53
67457;BME280;54319;52.038;4.640;2023-02-10T13:02:51;103762.75;;;7.61;64.91
67457;BME280;54319;52.038;4.640;2023-02-10T13:05:25;103774.75;;;7.93;64.46
67457;BME280;54319;52.038;4.640;2023-02-10T13:07:56;103750.31;;;7.81;65.09
67457;BME280;54319;52.038;4.640;2023-02-10T13:10:30;103763.66;;;7.85;64.56
67457;BME280;54319;52.038;4.640;2023-02-10T13:13:02;103704.81;;;7.61;65.38
67457;BME280;54319;52.038;4.640;2023-02-10T13:15:37;103758.47;;;7.93;65.67
67457;BME280;54319;52.038;4.640;2023-02-10T13:18:16;103744.97;;;7.80;66.15
67457;BME280;54319;52.038;4.640;2023-02-10T13:20:49;103741.13;;;7.60;66.65